Time;durP1;ratioP1;P1;durP2;ratioP2;P2;SDS_P1;SDS_P2;PMS_P1;PMS_P2;Temp;Humidity;BMP_temperature;BMP_pressure;BME280_temperature;BME280_humidity;BME280_pressure;Samples;Min_cycle;Max_cycle;Signal;HPM_P1;HPM_P2
2021/03/26 00:00:37;;;;;;;112.40;67.40;;;;;;;10.30;57.56;100652.78;4845040;28;96997;-80
2021/03/26 00:03:06;;;;;;;109.55;67.25;;;;;;;10.30;57.53;100652.78;4857459;28;96846;-80
2021/03/26 00:05:33;;;;;;;117.60;72.22;;;;;;;10.27;57.54;100650.22;4856696;28;97512;-80
2021/03/26 00:07:58;;;;;;;119.60;69.10;;;;;;;10.14;58.05;100660.16;4867881;28;101573;-80
2021/03/26 00:10:24;;;;;;;119.00;70.75;;;;;;;10.07;58.06;100655.13;4874181;28;97133;-79
2021/03/26 00:12:51;;;;;;;116.82;68.05;;;;;;;10.09;58.40;100655.94;4852320;28;97252;-80
2021/03/26 00:15:17;;;;;;;118.25;71.13;;;;;;;10.13;58.26;100654.97;4873305;28;101990;-79
2021/03/26 00:17:42;;;;;;;112.82;67.45;;;;;;;10.05;58.21;100647.28;4872923;28;100884;-80
2021/03/26 00:20:09;;;;;;;110.68;69.57;;;;;;;10.12;57.88;100653.22;4874476;28;96715;-79
2021/03/26 00:22:35;;;;;;;111.45;70.53;;;;;;;10.02;57.96;100649.13;4851068;28;97210;-81
2021/03/26 00:25:00;;;;;;;117.43;69.18;;;;;;;10.04;58.17;100652.59;4890054;28;98176;-79
2021/03/26 00:27:26;;;;;;;121.68;72.20;;;;;;;9.93;57.90;100660.72;4883160;28;101390;-82
2021/03/26 00:29:51;;;;;;;118.13;70.10;;;;;;;9.96;58.42;100656.25;4889661;28;96884;-80
2021/03/26 00:32:18;;;;;;;115.95;70.72;;;;;;;9.90;58.49;100655.56;4848960;28;96758;-80
2021/03/26 00:34:43;;;;;;;114.85;72.55;;;;;;;9.91;58.15;100654.66;4838647;28;101063;-80
2021/03/26 00:37:09;;;;;;;119.90;72.22;;;;;;;9.89;58.24;100651.19;4841513;28;101705;-80
2021/03/26 00:39:35;;;;;;;116.57;70.75;;;;;;;9.88;58.42;100652.13;4889184;28;97069;-80
2021/03/26 00:42:00;;;;;;;120.10;71.20;;;;;;;9.87;58.43;100655.66;4868049;28;97004;-79
2021/03/26 00:44:26;;;;;;;123.70;72.40;;;;;;;9.71;58.93;100649.91;4858219;28;98418;-79
2021/03/26 00:46:51;;;;;;;128.63;73.63;;;;;;;9.73;58.97;100648.13;4857321;28;99404;-80
2021/03/26 00:49:17;;;;;;;122.05;72.70;;;;;;;9.73;58.34;100650.75;4873152;28;97158;-79
2021/03/26 00:51:43;;;;;;;120.80;74.50;;;;;;;9.67;58.98;100650.91;4868025;28;96964;-79
2021/03/26 00:54:11;;;;;;;124.45;71.90;;;;;;;9.71;58.79;100653.38;4885070;28;97989;-79
2021/03/26 00:56:37;;;;;;;124.05;71.75;;;;;;;9.70;59.08;100649.06;4867487;28;101718;-80
2021/03/26 00:59:03;;;;;;;124.85;75.63;;;;;;;9.59;59.37;100648.47;4855922;28;97007;-79
2021/03/26 01:01:30;;;;;;;125.40;75.28;;;;;;;9.60;58.95;100647.59;4874272;28;97731;-84
2021/03/26 01:03:55;;;;;;;129.57;77.63;;;;;;;9.60;59.21;100649.31;4863327;28;101392;-79
2021/03/26 01:06:22;;;;;;;131.65;78.60;;;;;;;9.50;59.51;100649.56;4876706;28;98366;-80
2021/03/26 01:08:49;;;;;;;135.20;78.13;;;;;;;9.53;58.91;100656.47;4842976;28;97632;-82
2021/03/26 01:11:23;;;;;;;125.07;77.40;;;;;;;9.55;59.04;100652.06;4839293;29;97050;-80
2021/03/26 01:13:49;;;;;;;131.70;77.72;;;;;;;9.55;59.34;100648.59;4837716;29;101852;-79
2021/03/26 01:16:16;;;;;;;125.95;76.78;;;;;;;9.56;59.14;100647.69;4845968;28;101550;-80
2021/03/26 01:18:44;;;;;;;131.68;77.05;;;;;;;9.55;58.78;100653.84;4847245;28;97093;-79
2021/03/26 01:21:16;;;;;;;126.82;77.88;;;;;;;9.49;59.20;100649.59;4864314;28;96989;-80
2021/03/26 01:23:43;;;;;;;128.45;77.28;;;;;;;9.44;58.72;100647.06;4850127;28;100913;-80
2021/03/26 01:26:10;;;;;;;124.93;76.20;;;;;;;9.46;59.42;100653.16;4860830;28;101195;-82
2021/03/26 01:28:58;;;;;;;126.03;74.95;;;;;;;9.38;59.39;100655.09;4832687;28;96967;-79
2021/03/26 01:31:44;;;;;;;125.63;73.32;;;;;;;9.40;59.50;100644.59;4871120;28;99156;-80
2021/03/26 01:34:10;;;;;;;126.32;73.90;;;;;;;9.41;59.25;100648.91;4863994;28;101535;-79
2021/03/26 01:36:42;;;;;;;131.02;76.18;;;;;;;9.38;59.45;100647.22;4864343;28;102135;-79
2021/03/26 01:39:11;;;;;;;128.10;76.05;;;;;;;9.25;59.77;100641.44;4864106;28;97328;-81
2021/03/26 01:41:44;;;;;;;121.97;73.40;;;;;;;9.35;59.87;100649.94;4851280;28;96713;-80
2021/03/26 01:44:22;;;;;;;127.05;74.72;;;;;;;9.40;59.46;100648.06;4870795;28;101608;-80
2021/03/26 01:46:49;;;;;;;123.78;74.75;;;;;;;9.37;59.47;100642.91;4865654;28;101421;-80
2021/03/26 01:49:19;;;;;;;130.38;74.43;;;;;;;9.32;59.55;100643.91;4863506;28;97489;-80
2021/03/26 01:51:49;;;;;;;134.43;73.50;;;;;;;9.40;59.35;100649.84;4848035;28;97336;-80
2021/03/26 01:54:17;;;;;;;133.02;74.65;;;;;;;9.38;59.64;100647.22;4854353;28;101943;-80
2021/03/26 01:56:44;;;;;;;118.57;73.35;;;;;;;9.28;60.18;100643.97;4841088;28;101165;-80
2021/03/26 01:59:42;;;;;;;124.95;73.43;;;;;;;9.29;59.86;100636.97;4851070;28;97084;-80
2021/03/26 02:02:19;;;;;;;122.00;72.40;;;;;;;9.19;59.86;100641.56;4873621;28;97467;-80
2021/03/26 02:05:26;;;;;;;125.10;74.35;;;;;;;9.21;60.59;100631.91;4866952;28;97287;-80
2021/03/26 02:08:15;;;;;;;120.32;71.82;;;;;;;9.26;60.33;100634.44;4884968;28;97164;-85
2021/03/26 02:10:53;;;;;;;118.93;70.88;;;;;;;9.29;60.50;100634.34;4853979;28;96933;-80
2021/03/26 02:13:26;;;;;;;123.05;72.90;;;;;;;9.34;59.92;100639.47;4858952;28;96756;-80
2021/03/26 02:15:55;;;;;;;117.00;67.32;;;;;;;9.36;60.16;100642.91;4864723;28;101556;-80
2021/03/26 02:18:30;;;;;;;121.65;70.65;;;;;;;9.39;60.21;100635.84;4875276;28;98375;-80
2021/03/26 02:20:59;;;;;;;122.22;74.45;;;;;;;9.18;60.17;100633.75;4866154;28;96823;-79
2021/03/26 02:23:27;;;;;;;134.75;79.35;;;;;;;9.09;60.69;100632.19;4864287;28;97296;-79
2021/03/26 02:26:22;;;;;;;133.05;78.38;;;;;;;9.14;60.59;100639.97;4855376;28;101774;-82
2021/03/26 02:28:50;;;;;;;136.02;80.72;;;;;;;9.12;60.45;100644.38;4884490;28;98320;-80
2021/03/26 02:31:45;;;;;;;137.85;78.57;;;;;;;9.11;60.68;100643.50;4818548;28;96926;-83
2021/03/26 02:34:11;;;;;;;145.65;83.18;;;;;;;9.14;60.46;100646.06;4879197;28;96838;-80
2021/03/26 02:36:50;;;;;;;157.75;87.95;;;;;;;9.09;60.62;100650.53;4865082;28;101590;-80
2021/03/26 02:39:21;;;;;;;147.48;85.22;;;;;;;9.17;60.93;100652.97;4861872;28;101770;-80
2021/03/26 02:41:52;;;;;;;150.18;84.32;;;;;;;9.14;60.53;100653.06;4850867;29;97466;-79
2021/03/26 02:44:56;;;;;;;149.27;81.15;;;;;;;9.18;60.83;100662.56;4872650;28;97260;-83
2021/03/26 02:47:41;;;;;;;143.75;80.18;;;;;;;9.20;60.28;100660.78;4887841;28;101385;-85
2021/03/26 02:50:48;;;;;;;136.18;80.45;;;;;;;9.24;60.74;100663.25;4866078;28;98989;-80
2021/03/26 02:53:36;;;;;;;139.32;80.88;;;;;;;9.13;60.64;100657.41;4870137;28;96715;-79
2021/03/26 02:56:25;;;;;;;135.35;77.70;;;;;;;9.17;60.72;100664.31;4860311;28;96618;-79
2021/03/26 02:59:15;;;;;;;123.03;74.97;;;;;;;9.16;61.13;100666.97;4872557;28;101635;-80
2021/03/26 03:01:51;;;;;;;130.43;76.68;;;;;;;9.27;60.27;100660.56;4857653;28;100806;-80
2021/03/26 03:04:28;;;;;;;130.55;74.60;;;;;;;9.26;60.30;100671.09;4848089;28;96737;-80
2021/03/26 03:06:58;;;;;;;129.40;74.57;;;;;;;9.30;60.54;100668.34;4856897;28;97451;-80
2021/03/26 03:09:53;;;;;;;131.73;75.18;;;;;;;9.33;60.34;100671.81;4847252;28;97847;-80
2021/03/26 03:12:32;;;;;;;123.60;75.47;;;;;;;9.41;60.59;100683.84;4871946;28;98565;-79
2021/03/26 03:15:10;;;;;;;135.45;76.63;;;;;;;9.47;60.35;100681.06;4856089;28;96716;-80
2021/03/26 03:17:41;;;;;;;142.68;83.30;;;;;;;9.44;60.56;100675.06;4868328;28;96842;-86
2021/03/26 03:20:36;;;;;;;146.80;82.43;;;;;;;9.40;61.05;100676.03;4866131;28;101450;-80
2021/03/26 03:23:16;;;;;;;140.25;80.90;;;;;;;9.42;60.93;100677.69;4863826;28;101773;-80
2021/03/26 03:26:26;;;;;;;133.82;80.18;;;;;;;9.46;60.71;100692.47;4873624;28;96831;-79
2021/03/26 03:29:00;;;;;;;139.70;79.68;;;;;;;9.48;61.13;100680.19;4883889;28;97143;-80
2021/03/26 03:32:05;;;;;;;140.80;81.35;;;;;;;9.48;61.30;100682.81;4875439;28;97134;-80
2021/03/26 03:34:37;;;;;;;143.63;80.47;;;;;;;9.39;61.08;100683.00;4858855;28;101728;-80
2021/03/26 03:37:25;;;;;;;132.53;78.53;;;;;;;9.38;61.67;100689.16;4849454;29;97606;-80
2021/03/26 03:39:50;;;;;;;128.60;74.00;;;;;;;9.28;61.90;100679.78;4851596;28;97449;-79
2021/03/26 03:42:41;;;;;;;134.98;75.40;;;;;;;9.23;62.25;100676.41;4865595;28;101132;-80
2021/03/26 03:45:16;;;;;;;125.68;75.72;;;;;;;9.11;62.30;100666.22;4840460;29;101555;-79
2021/03/26 03:47:52;;;;;;;123.78;72.13;;;;;;;8.97;62.91;100656.03;4848432;28;97035;-80
2021/03/26 03:50:27;;;;;;;117.53;70.95;;;;;;;9.10;63.09;100652.25;4862189;28;96905;-79
2021/03/26 03:53:07;;;;;;;122.38;71.07;;;;;;;9.11;62.91;100656.59;4855181;28;100824;-79
2021/03/26 03:55:47;;;;;;;122.40;69.05;;;;;;;8.93;63.83;100672.69;4861812;28;101727;-87
2021/03/26 03:58:16;;;;;;;116.25;69.20;;;;;;;9.02;63.90;100668.16;4882884;28;97134;-79
2021/03/26 04:00:55;;;;;;;109.22;66.47;;;;;;;9.12;63.42;100660.94;4862230;28;96940;-79
2021/03/26 04:03:32;;;;;;;113.93;66.70;;;;;;;9.04;63.30;100668.94;4864895;28;101891;-79
2021/03/26 04:06:14;;;;;;;111.78;66.60;;;;;;;9.18;62.69;100680.88;4853085;28;101731;-79
2021/03/26 04:08:48;;;;;;;115.80;67.18;;;;;;;9.16;62.96;100675.69;4861636;28;96725;-80
2021/03/26 04:11:28;;;;;;;105.93;67.32;;;;;;;9.21;62.93;100679.06;4859033;28;96899;-80
2021/03/26 04:14:11;;;;;;;113.53;67.10;;;;;;;9.17;62.94;100676.56;4858802;28;98626;-79
2021/03/26 04:16:39;;;;;;;111.05;64.95;;;;;;;9.22;63.25;100670.31;4870808;28;101465;-86
2021/03/26 04:19:22;;;;;;;108.43;64.55;;;;;;;9.27;62.76;100678.91;4854310;28;97023;-78
2021/03/26 04:22:02;;;;;;;104.18;65.20;;;;;;;9.26;62.48;100671.97;4878436;28;96756;-79
2021/03/26 04:25:11;;;;;;;110.97;63.40;;;;;;;9.32;62.32;100676.19;4878590;28;99380;-79
2021/03/26 04:28:18;;;;;;;111.25;66.95;;;;;;;9.20;63.25;100671.25;4845341;28;96864;-79
2021/03/26 04:31:00;;;;;;;113.43;65.88;;;;;;;9.07;63.33;100673.25;4876653;28;97615;-79
2021/03/26 04:33:46;;;;;;;109.60;65.07;;;;;;;9.22;62.76;100672.06;4853515;29;96905;-79
2021/03/26 04:36:14;;;;;;;103.13;61.90;;;;;;;9.26;62.68;100673.72;4838400;28;101937;-79
2021/03/26 04:39:16;;;;;;;108.07;64.47;;;;;;;9.18;63.12;100671.25;4862518;28;98060;-79
2021/03/26 04:41:53;;;;;;;101.70;62.90;;;;;;;9.22;63.00;100675.56;4870323;28;96654;-80
2021/03/26 04:44:24;;;;;;;109.65;63.60;;;;;;;9.21;63.02;100675.56;4861832;28;96824;-80
2021/03/26 04:47:01;;;;;;;107.43;63.45;;;;;;;9.18;63.04;100666.03;4866471;28;98676;-79
2021/03/26 04:49:57;;;;;;;101.90;61.38;;;;;;;9.16;63.26;100661.72;4859809;28;98378;-83
2021/03/26 04:52:32;;;;;;;106.50;64.63;;;;;;;9.05;63.25;100667.22;4854800;28;96758;-79
2021/03/26 04:55:22;;;;;;;109.43;63.58;;;;;;;9.15;63.29;100663.47;4847779;29;97218;-79
2021/03/26 04:58:02;;;;;;;101.70;61.67;;;;;;;9.23;62.76;100656.31;4888745;28;98068;-79
2021/03/26 05:00:49;;;;;;;100.63;62.03;;;;;;;9.24;62.68;100665.88;4871407;28;97158;-79
2021/03/26 05:03:19;;;;;;;100.85;60.08;;;;;;;9.16;62.83;100667.84;4868502;28;97161;-79
2021/03/26 05:06:02;;;;;;;100.03;60.60;;;;;;;9.09;62.98;100665.38;4870914;28;96590;-80
2021/03/26 05:08:33;;;;;;;98.43;58.22;;;;;;;9.19;62.62;100667.78;4858001;28;101574;-79
2021/03/26 05:11:19;;;;;;;101.07;59.70;;;;;;;9.17;62.92;100668.69;4868155;28;97082;-79
2021/03/26 05:13:49;;;;;;;96.63;61.10;;;;;;;9.20;62.73;100669.47;4875697;28;96655;-79
2021/03/26 05:16:47;;;;;;;101.47;61.67;;;;;;;9.00;62.89;100671.69;4851044;28;96962;-79
2021/03/26 05:19:43;;;;;;;107.18;62.78;;;;;;;8.66;64.09;100674.16;4884860;28;97135;-80
2021/03/26 05:22:18;;;;;;;101.28;60.28;;;;;;;8.74;64.00;100680.09;4837882;28;102050;-80
2021/03/26 05:25:34;;;;;;;97.82;59.65;;;;;;;8.89;63.45;100676.28;4876261;28;96745;-79
2021/03/26 05:28:23;;;;;;;101.88;60.05;;;;;;;8.74;64.21;100673.09;4879350;28;97124;-80
2021/03/26 05:31:08;;;;;;;97.22;59.72;;;;;;;8.51;64.76;100683.19;4861281;28;100828;-79
2021/03/26 05:33:41;;;;;;;91.57;59.20;;;;;;;8.52;64.42;100683.16;4869585;28;101761;-79
2021/03/26 05:36:14;;;;;;;93.78;58.95;;;;;;;8.81;63.45;100686.91;4863612;28;96819;-79
2021/03/26 05:38:56;;;;;;;92.82;55.85;;;;;;;8.97;63.31;100680.47;4880508;28;97308;-85
2021/03/26 05:42:40;;;;;;;94.75;57.45;;;;;;;8.89;63.31;100678.91;4804537;29;97928;-79
2021/03/26 05:45:22;;;;;;;92.32;54.78;;;;;;;8.99;63.25;100675.22;4806908;29;101747;-80
2021/03/26 05:48:50;;;;;;;98.35;57.67;;;;;;;9.11;62.90;100677.56;4833483;29;96888;-79
2021/03/26 05:51:37;;;;;;;91.70;56.75;;;;;;;9.06;63.09;100674.16;4803100;29;97264;-80
2021/03/26 05:54:08;;;;;;;92.03;56.97;;;;;;;9.06;62.85;100671.56;4846266;28;99495;-79
2021/03/26 05:57:03;;;;;;;91.38;55.40;;;;;;;9.13;62.62;100677.50;4872167;28;101374;-86
2021/03/26 05:59:46;;;;;;;82.55;52.90;;;;;;;9.22;62.61;100678.19;4882956;28;97034;-79
2021/03/26 06:02:36;;;;;;;80.88;51.78;;;;;;;9.37;61.99;100686.59;4867303;28;97005;-80
2021/03/26 06:05:55;;;;;;;79.13;51.45;;;;;;;9.24;62.15;100686.00;4827624;29;97868;-85
2021/03/26 06:09:02;;;;;;;83.28;52.72;;;;;;;9.37;61.86;100684.81;4834827;29;97002;-80
2021/03/26 06:11:52;;;;;;;83.22;51.78;;;;;;;9.44;61.85;100701.25;4874950;28;96716;-80
2021/03/26 06:15:15;;;;;;;82.05;51.13;;;;;;;9.63;61.36;100692.06;4849364;29;96777;-83
2021/03/26 06:18:31;;;;;;;80.10;50.67;;;;;;;9.69;61.29;100698.91;4882362;28;97291;-80
2021/03/26 06:22:03;;;;;;;81.45;51.30;;;;;;;9.51;61.30;100697.56;4786768;29;97547;-80
2021/03/26 06:25:16;;;;;;;79.78;49.78;;;;;;;9.81;60.63;100697.75;4874413;28;96690;-80
2021/03/26 06:27:59;;;;;;;79.28;50.90;;;;;;;9.83;60.17;100701.19;4865359;28;98029;-83
2021/03/26 06:30:37;;;;;;;74.82;48.47;;;;;;;9.97;60.03;100696.44;4856932;28;101919;-79
2021/03/26 06:34:05;;;;;;;79.20;50.47;;;;;;;10.03;59.60;100696.28;4887067;28;97985;-81
2021/03/26 06:36:44;;;;;;;85.25;54.15;;;;;;;9.85;60.56;100696.75;4872473;28;97004;-81
2021/03/26 06:39:45;;;;;;;83.22;51.97;;;;;;;9.87;60.20;100692.34;4859835;28;96784;-80
2021/03/26 06:42:10;;;;;;;88.70;52.92;;;;;;;10.05;60.13;100699.75;4871521;28;98447;-80
2021/03/26 06:44:45;;;;;;;86.88;54.85;;;;;;;10.12;59.60;100700.44;4875020;28;101137;-80
2021/03/26 06:47:29;;;;;;;86.70;52.70;;;;;;;10.24;59.23;100701.88;4872586;28;97018;-81
2021/03/26 06:50:03;;;;;;;82.47;52.03;;;;;;;10.40;59.18;100696.22;4872967;28;97030;-79
2021/03/26 06:52:53;;;;;;;87.30;52.67;;;;;;;10.39;59.66;100697.13;4839503;28;101089;-80
2021/03/26 06:55:55;;;;;;;83.80;53.10;;;;;;;10.82;58.14;100697.66;4876419;28;98296;-79
2021/03/26 06:58:56;;;;;;;83.90;53.25;;;;;;;11.01;57.89;100693.59;4856293;28;97129;-80
2021/03/26 07:01:34;;;;;;;88.63;50.92;;;;;;;11.26;56.93;100701.63;4843625;28;97252;-81
2021/03/26 07:04:27;;;;;;;82.70;49.83;;;;;;;11.28;57.00;100699.78;4874960;28;99785;-80
2021/03/26 07:07:05;;;;;;;85.32;50.80;;;;;;;11.36;56.90;100702.19;4881548;28;101417;-79
2021/03/26 07:09:48;;;;;;;76.18;49.50;;;;;;;11.50;55.83;100701.75;4875529;28;96900;-81
2021/03/26 07:12:23;;;;;;;79.97;50.97;;;;;;;11.72;55.74;100694.91;4877292;28;96858;-81
2021/03/26 07:14:55;;;;;;;78.78;50.47;;;;;;;11.82;55.32;100692.81;4872074;28;98347;-83
2021/03/26 07:17:32;;;;;;;75.60;49.85;;;;;;;11.90;55.13;100701.34;4846525;28;101244;-81
2021/03/26 07:20:16;;;;;;;77.07;50.72;;;;;;;12.19;55.02;100708.25;4864598;28;97934;-80
2021/03/26 07:23:06;;;;;;;78.10;48.80;;;;;;;12.56;54.03;100695.53;4866126;28;97219;-86
2021/03/26 07:26:19;;;;;;;76.63;49.20;;;;;;;12.73;53.53;100697.56;4867426;28;97724;-80
2021/03/26 07:29:30;;;;;;;78.25;49.33;;;;;;;13.79;51.61;100697.81;4835500;29;100964;-88
2021/03/26 07:32:10;;;;;;;75.43;47.38;;;;;;;16.66;45.94;100692.22;4820535;29;97155;-80
2021/03/26 07:34:49;;;;;;;77.38;47.00;;;;;;;16.96;44.99;100692.41;4871040;28;96772;-80
2021/03/26 07:37:22;;;;;;;72.43;48.38;;;;;;;17.39;43.79;100690.03;4867831;28;98322;-77
2021/03/26 07:40:09;;;;;;;79.05;49.15;;;;;;;17.33;43.77;100685.03;4857033;28;101193;-77
2021/03/26 07:43:06;;;;;;;74.10;50.08;;;;;;;19.25;40.85;100688.63;4871395;28;97149;-78
2021/03/26 07:45:36;;;;;;;70.00;48.85;;;;;;;20.60;38.77;100683.16;4863344;28;96944;-77
2021/03/26 07:48:17;;;;;;;76.25;51.65;;;;;;;21.58;36.71;100673.38;4874092;28;101815;-78
2021/03/26 07:50:56;;;;;;;73.80;51.47;;;;;;;22.28;35.71;100685.06;4849235;28;101836;-85
2021/03/26 07:53:34;;;;;;;81.32;56.25;;;;;;;22.46;35.46;100682.81;4885336;28;97006;-77
2021/03/26 07:56:27;;;;;;;75.65;50.10;;;;;;;23.39;34.36;100677.16;4875207;28;97491;-78
2021/03/26 07:59:07;;;;;;;61.30;47.22;;;;;;;24.14;33.06;100681.59;4890422;28;101383;-78
2021/03/26 08:02:06;;;;;;;65.40;48.40;;;;;;;23.98;33.03;100682.06;4864026;28;101332;-77
2021/03/26 08:04:57;;;;;;;64.35;47.13;;;;;;;24.69;32.05;100681.38;4855061;28;96970;-80
2021/03/26 08:07:35;;;;;;;71.03;49.45;;;;;;;25.19;31.66;100686.78;4848150;28;97472;-78
2021/03/26 08:10:03;;;;;;;67.78;47.72;;;;;;;26.36;30.39;100685.00;4886156;28;98265;-78
2021/03/26 08:12:44;;;;;;;71.13;49.97;;;;;;;25.37;31.33;100687.00;4886118;28;98010;-78
2021/03/26 08:15:35;;;;;;;67.20;47.42;;;;;;;23.02;34.18;100694.38;4884548;28;97209;-77
2021/03/26 08:18:22;;;;;;;67.40;48.63;;;;;;;22.68;34.77;100700.69;4881663;28;97483;-76
2021/03/26 08:21:00;;;;;;;62.70;45.85;;;;;;;24.20;32.52;100690.94;4857300;28;99324;-77
2021/03/26 08:24:01;;;;;;;60.33;45.83;;;;;;;26.05;30.64;100689.72;4873441;28;101087;-72
2021/03/26 08:26:56;;;;;;;66.25;45.67;;;;;;;27.19;28.95;100694.03;4877422;28;96900;-75
2021/03/26 08:29:35;;;;;;;56.67;43.72;;;;;;;26.94;29.13;100700.13;4860355;28;96951;-75
2021/03/26 08:32:13;;;;;;;56.00;42.67;;;;;;;27.70;28.40;100687.16;4849820;28;100962;-76
2021/03/26 08:34:58;;;;;;;61.40;44.40;;;;;;;27.45;28.55;100688.75;4875971;28;98418;-75
2021/03/26 08:37:29;;;;;;;55.08;43.63;;;;;;;28.27;27.96;100689.50;4870257;28;97127;-75
2021/03/26 08:39:57;;;;;;;55.22;42.65;;;;;;;29.41;27.02;100680.25;4868657;28;97960;-75
2021/03/26 08:42:29;;;;;;;57.17;43.47;;;;;;;28.43;27.47;100688.81;4854309;28;102159;-75
2021/03/26 08:44:58;;;;;;;53.92;42.00;;;;;;;28.76;27.40;100688.97;4874965;28;98075;-76
2021/03/26 08:47:38;;;;;;;55.45;39.90;;;;;;;30.16;26.28;100680.16;4873870;28;98208;-76
2021/03/26 08:50:10;;;;;;;54.17;40.80;;;;;;;30.71;25.42;100678.53;4861869;28;96973;-81
2021/03/26 08:52:45;;;;;;;54.22;41.80;;;;;;;30.41;25.76;100678.31;4871152;28;98755;-75
2021/03/26 08:55:29;;;;;;;56.25;41.65;;;;;;;28.97;27.17;100675.88;4871618;28;98276;-77
2021/03/26 08:58:23;;;;;;;60.03;42.05;;;;;;;29.82;26.53;100680.34;4864139;28;98124;-75
2021/03/26 09:01:20;;;;;;;56.70;41.05;;;;;;;29.75;26.05;100677.47;4864586;28;97194;-79
2021/03/26 09:03:59;;;;;;;53.83;37.80;;;;;;;28.27;26.52;100673.31;4874183;28;100832;-79
2021/03/26 09:07:06;;;;;;;50.05;36.97;;;;;;;26.59;28.70;100677.44;4868063;28;97946;-74
2021/03/26 09:09:42;;;;;;;53.45;37.30;;;;;;;26.43;29.73;100683.41;4851868;28;98040;-76
2021/03/26 09:12:22;;;;;;;50.00;37.13;;;;;;;26.36;29.84;100683.16;4864707;28;97381;-75
2021/03/26 09:15:23;;;;;;;47.73;34.47;;;;;;;26.35;29.69;100684.13;4889161;28;98128;-75
2021/03/26 09:18:09;;;;;;;48.40;34.83;;;;;;;26.05;29.43;100687.03;4840482;28;98092;-74
2021/03/26 09:20:42;;;;;;;45.33;32.10;;;;;;;26.07;29.36;100680.50;4869125;28;97357;-74
2021/03/26 09:23:31;;;;;;;52.05;35.63;;;;;;;24.74;31.13;100679.13;4848810;28;97149;-74
2021/03/26 09:26:25;;;;;;;52.20;33.55;;;;;;;25.08;31.35;100679.69;4868505;28;101225;-74
2021/03/26 09:28:54;;;;;;;58.72;36.70;;;;;;;23.83;32.71;100680.69;4867470;28;101368;-74
2021/03/26 09:31:32;;;;;;;48.08;33.90;;;;;;;23.18;33.91;100679.75;4854749;28;97184;-74
2021/03/26 09:34:23;;;;;;;47.40;33.95;;;;;;;23.65;33.29;100678.53;4850998;28;97041;-74
2021/03/26 09:37:15;;;;;;;49.40;33.15;;;;;;;23.49;33.54;100676.25;4850271;28;98032;-74
2021/03/26 09:39:44;;;;;;;58.40;34.45;;;;;;;22.76;34.06;100680.38;4866794;28;98173;-74
2021/03/26 09:42:30;;;;;;;51.05;33.58;;;;;;;23.15;33.94;100678.16;4867319;28;97810;-74
2021/03/26 09:45:12;;;;;;;43.15;32.33;;;;;;;23.36;33.77;100672.91;4877068;28;96906;-74
2021/03/26 09:47:44;;;;;;;48.50;33.80;;;;;;;21.95;35.23;100675.13;4890843;28;101283;-73
2021/03/26 09:50:28;;;;;;;49.83;30.52;;;;;;;22.67;34.28;100675.75;4889141;28;101037;-74
2021/03/26 09:52:55;;;;;;;46.83;29.45;;;;;;;22.19;33.98;100678.59;4864826;28;96855;-74
2021/03/26 09:55:28;;;;;;;41.08;28.13;;;;;;;22.46;33.37;100672.94;4853787;28;98850;-74
2021/03/26 09:57:56;;;;;;;41.85;28.13;;;;;;;22.75;33.54;100670.66;4859177;28;101327;-74
2021/03/26 10:00:48;;;;;;;41.42;28.35;;;;;;;22.73;33.49;100669.91;4868530;28;98205;-74
2021/03/26 10:03:23;;;;;;;40.42;29.08;;;;;;;22.15;34.22;100669.09;4863891;28;97199;-73
2021/03/26 10:05:48;;;;;;;39.97;28.48;;;;;;;22.17;33.96;100667.19;4869985;28;96959;-74
2021/03/26 10:11:14;;;;;;;43.58;29.63;;;;;;;21.60;34.93;100658.09;4873658;28;101340;-74
2021/03/26 10:13:50;;;;;;;38.97;26.98;;;;;;;21.82;34.74;100652.00;4869142;28;96897;-74
2021/03/26 10:16:22;;;;;;;38.45;27.25;;;;;;;21.82;34.87;100648.47;4847929;28;96753;-73
2021/03/26 10:19:09;;;;;;;46.00;27.20;;;;;;;22.03;34.86;100652.19;4854098;28;101576;-76
2021/03/26 10:21:37;;;;;;;41.03;26.73;;;;;;;21.99;34.50;100648.06;4852519;28;99542;-72
2021/03/26 10:24:31;;;;;;;41.83;27.17;;;;;;;22.00;34.33;100648.91;4844755;28;97310;-73
2021/03/26 10:27:19;;;;;;;40.28;28.05;;;;;;;21.46;35.11;100644.91;4851381;28;97331;-74
2021/03/26 10:29:49;;;;;;;43.03;28.63;;;;;;;21.21;35.83;100640.53;4848832;28;100873;-74
2021/03/26 10:32:24;;;;;;;44.15;28.92;;;;;;;20.21;36.25;100647.59;4882736;28;98496;-73
2021/03/26 10:34:51;;;;;;;45.58;27.42;;;;;;;20.13;37.08;100648.13;4846680;28;97038;-75
2021/03/26 10:37:40;;;;;;;38.40;25.42;;;;;;;19.75;35.84;100642.75;4850805;28;96939;-75
2021/03/26 10:40:27;;;;;;;38.13;23.42;;;;;;;19.99;35.98;100639.38;4850620;28;101687;-73
2021/03/26 10:43:03;;;;;;;34.20;22.60;;;;;;;20.27;35.51;100635.66;4871330;28;98188;-74
2021/03/26 10:45:47;;;;;;;37.03;21.90;;;;;;;20.10;35.39;100628.81;4874353;28;96879;-72
2021/03/26 10:48:28;;;;;;;36.63;22.60;;;;;;;20.11;34.81;100634.06;4873126;28;96841;-72
2021/03/26 10:51:12;;;;;;;41.65;22.25;;;;;;;20.22;34.93;100624.47;4853743;29;98214;-73
2021/03/26 10:53:44;;;;;;;34.83;21.95;;;;;;;19.88;35.43;100627.63;4865650;28;97939;-73
2021/03/26 10:56:31;;;;;;;34.55;22.85;;;;;;;19.87;35.14;100623.28;4859875;28;96733;-72
2021/03/26 10:59:03;;;;;;;35.90;22.55;;;;;;;19.95;35.58;100620.06;4859866;28;97592;-72
2021/03/26 11:01:34;;;;;;;38.17;21.75;;;;;;;19.92;35.47;100616.75;4865688;28;101537;-72
2021/03/26 11:04:07;;;;;;;;;;;;;;;19.56;35.49;100608.47;4872137;28;98365;-72
2021/03/26 11:06:35;;;;;;;32.42;20.52;;;;;;;19.85;35.45;100605.69;4864281;28;96815;-72
2021/03/26 11:09:21;;;;;;;37.22;22.52;;;;;;;19.23;36.36;100600.94;4863653;28;96949;-72
2021/03/26 11:11:53;;;;;;;32.45;21.52;;;;;;;19.36;36.49;100593.81;4852200;28;101489;-73
2021/03/26 11:14:33;;;;;;;35.30;23.23;;;;;;;19.23;36.70;100596.44;4857208;28;101462;-72
2021/03/26 11:17:04;;;;;;;35.22;22.45;;;;;;;19.14;37.00;100597.06;4840777;28;97559;-72
2021/03/26 11:19:41;;;;;;;34.40;21.50;;;;;;;18.93;36.99;100590.47;4856448;28;97480;-72
2021/03/26 11:22:17;;;;;;;35.00;21.40;;;;;;;18.90;37.24;100583.53;4836390;29;101380;-74
2021/03/26 11:24:56;;;;;;;34.72;21.17;;;;;;;19.09;37.43;100585.00;4845039;28;101627;-73
2021/03/26 11:27:26;;;;;;;35.15;21.77;;;;;;;19.05;36.62;100581.66;4856671;28;96939;-73
2021/03/26 11:30:10;;;;;;;33.28;21.05;;;;;;;19.08;37.11;100586.81;4853031;28;97177;-76
2021/03/26 11:32:38;;;;;;;34.47;21.02;;;;;;;19.15;37.23;100577.47;4867355;28;101575;-73
2021/03/26 11:35:20;;;;;;;37.72;21.13;;;;;;;19.00;36.85;100581.13;4864300;28;97948;-73
2021/03/26 11:37:56;;;;;;;32.60;21.05;;;;;;;19.06;37.04;100591.38;4856453;28;97189;-73
2021/03/26 11:40:31;;;;;;;36.90;21.65;;;;;;;18.99;36.93;100571.44;4870231;28;97380;-74
2021/03/26 11:43:12;;;;;;;37.28;22.40;;;;;;;18.94;37.18;100584.19;4867467;28;101816;-76
2021/03/26 11:45:42;;;;;;;40.37;22.53;;;;;;;18.75;37.10;100585.38;4878506;28;101373;-75
2021/03/26 11:48:16;;;;;;;31.98;20.10;;;;;;;18.77;37.23;100574.66;4881036;28;97349;-74
2021/03/26 11:50:51;;;;;;;31.15;18.38;;;;;;;18.87;37.21;100570.44;4867120;28;97535;-74
2021/03/26 11:53:42;;;;;;;36.53;21.80;;;;;;;18.73;37.70;100566.03;4855453;28;100918;-74
2021/03/26 11:56:07;;;;;;;41.33;22.30;;;;;;;18.45;37.85;100563.38;4871472;28;97918;-75
2021/03/26 11:58:54;;;;;;;35.10;20.58;;;;;;;18.59;36.93;100559.81;4857133;28;96780;-74
2021/03/26 12:01:23;;;;;;;36.05;20.75;;;;;;;18.38;37.39;100554.91;4853083;29;97014;-75
2021/03/26 12:03:48;;;;;;;32.55;19.63;;;;;;;18.53;37.58;100553.97;4852158;28;101664;-74
2021/03/26 12:06:24;;;;;;;38.38;20.30;;;;;;;18.41;37.27;100551.22;4864748;28;101577;-74
2021/03/26 12:09:21;;;;;;;29.17;18.25;;;;;;;18.43;37.04;100542.19;4851198;29;98120;-74